Hauptseite
METAR-TAF:

METAR-TAF

Flughäfen :

Lehigh Valley International Airport

Allentown, Pennsylvania, Vereinigte Staaten

Breite: 40-39-03N, Länge: 075-26-57W, Höhe: 120 m

Beobachtung

Neuester Wetterbericht von vor 26 Minuten, um 11:51 UTC
Windstille
Temperatur -6°C
Luftfeuchtigkeit 79%
Luftdruck 1020 hPa
Sichtweite: 16.1 km
Himmel klar

METAR: KABE 191151Z 00000KT 10SM CLR M06/M09 A3013 RMK AO2 SLP210 T10561094 11028 21067 58008

Zeit: 07:17 (12:17 UTC)

Prognose

Neuester Wetterbericht von vor 57 Minuten, um 11:20 UTC
Gültige Prognose vom 19 um 12 UTC bis 20 um 12 UTC
Wind 2 kt aus unterschiedlichen Richtungen
Sichtweite: 10 km
Leicht bewölkt in der Höhe von 25000 ft

TAF: KABE 191120Z 1912/2012 VRB02KT P6SM FEW250

Wetterbeobachtungen und Prognosen von mehr als 4000 Flughäfen (METAR und TAF Bericht).

Die verfügbaren Stationen werden durch gelbe und rote Markierungen auf der Karte dargestellt.

Führen Sie die Maus auf sie, um den Namen der Station zu sehen.

Darauf klicken, um die Beobachtung von Wetterbeobachtungen und Prognosen zu sehen.

Um die Karte zu ändern : klicken Sie auf den grünen Tasten mit einem schwarzen Kreuz Zum Vergrößern, auf den grünen Button mit einem Gedankenstrich zu verkleinern, oder auf die grünen Pfeile für benachbarte Karten.


METAR-TAF: